Time;durP1;ratioP1;P1;durP2;ratioP2;P2;SDS_P1;SDS_P2;PMS_P1;PMS_P2;Temp;Humidity;BMP_temperature;BMP_pressure;BME280_temperature;BME280_humidity;BME280_pressure;Samples;Min_cycle;Max_cycle;Signal;HPM_P1;HPM_P2
2022/04/30 00:01:28;;;;;;;17.23;9.50;;;7.00;97.00;;;;;;5084198;28;20043;-69
2022/04/30 00:03:54;;;;;;;16.05;10.02;;;7.00;97.10;;;;;;5065494;28;20032;-70
2022/04/30 00:06:20;;;;;;;15.10;9.63;;;6.90;97.10;;;;;;5066242;28;20020;-71
2022/04/30 00:08:45;;;;;;;18.10;10.45;;;6.90;97.20;;;;;;5066270;28;20043;-70
2022/04/30 00:11:11;;;;;;;16.05;9.80;;;6.90;97.20;;;;;;5083837;28;20177;-71
2022/04/30 00:13:37;;;;;;;19.23;10.38;;;6.90;97.20;;;;;;5082849;28;20256;-70
2022/04/30 00:16:03;;;;;;;18.27;10.48;;;6.80;97.20;;;;;;5066361;28;20060;-69
2022/04/30 00:18:29;;;;;;;16.00;10.57;;;6.80;97.20;;;;;;5066139;28;20021;-70
2022/04/30 00:20:58;;;;;;;18.05;10.77;;;6.80;97.20;;;;;;5082465;28;20046;-70
2022/04/30 00:23:24;;;;;;;17.60;10.02;;;6.80;97.30;;;;;;5083634;28;20087;-70
2022/04/30 00:25:51;;;;;;;16.48;10.45;;;6.70;97.20;;;;;;5082841;28;20114;-71
2022/04/30 00:28:20;;;;;;;19.05;10.75;;;6.70;97.10;;;;;;5084108;28;20020;-70
2022/04/30 00:30:46;;;;;;;18.48;10.48;;;6.60;97.20;;;;;;5066087;28;20024;-70
2022/04/30 00:33:12;;;;;;;17.17;10.18;;;6.60;97.30;;;;;;5065754;28;20207;-73
2022/04/30 00:35:38;;;;;;;22.52;11.07;;;6.60;97.40;;;;;;5066046;28;20017;-70
2022/04/30 00:38:05;;;;;;;15.77;10.48;;;6.50;97.40;;;;;;5083944;28;20021;-70
2022/04/30 00:40:31;;;;;;;17.52;10.98;;;6.40;97.60;;;;;;5082628;28;20028;-71
2022/04/30 00:42:56;;;;;;;20.45;11.10;;;6.30;97.70;;;;;;5081935;28;20248;-69
2022/04/30 00:45:22;;;;;;;18.35;10.52;;;6.30;97.90;;;;;;5066028;28;20203;-70
2022/04/30 00:47:48;;;;;;;19.00;11.18;;;6.30;98.00;;;;;;5082523;28;20323;-71
2022/04/30 00:50:16;;;;;;;18.90;10.85;;;6.30;98.00;;;;;;5082279;28;20048;-70
2022/04/30 00:52:43;;;;;;;17.17;10.40;;;6.20;98.10;;;;;;5082480;28;20070;-70
2022/04/30 00:55:11;;;;;;;15.82;10.88;;;6.20;98.30;;;;;;5082270;28;20029;-71
2022/04/30 00:57:41;;;;;;;17.92;11.20;;;6.20;98.50;;;;;;5066224;28;20020;-70
2022/04/30 01:00:08;;;;;;;16.58;10.98;;;6.20;98.70;;;;;;5082434;28;20063;-71
2022/04/30 01:02:34;;;;;;;18.30;10.93;;;6.20;98.80;;;;;;5083319;28;20024;-69
2022/04/30 01:05:01;;;;;;;19.48;10.82;;;6.20;98.90;;;;;;5082675;28;20033;-70
2022/04/30 01:07:28;;;;;;;22.88;11.00;;;6.10;99.00;;;;;;5083668;28;20093;-70
2022/04/30 01:09:54;;;;;;;20.27;11.65;;;6.10;99.00;;;;;;5066146;28;20100;-70
2022/04/30 01:12:22;;;;;;;22.23;11.57;;;6.10;98.90;;;;;;5082014;28;20028;-70
2022/04/30 01:14:50;;;;;;;17.15;10.57;;;6.00;99.00;;;;;;5084665;28;20066;-71
2022/04/30 01:17:17;;;;;;;19.25;10.90;;;6.00;99.20;;;;;;5085684;28;20089;-70
2022/04/30 01:19:43;;;;;;;20.88;11.25;;;5.90;99.30;;;;;;5086048;28;20024;-70
2022/04/30 01:22:30;;;;;;;16.42;11.30;;;5.90;99.60;;;;;;5085737;28;20029;-70
2022/04/30 01:24:58;;;;;;;18.08;11.13;;;5.90;99.60;;;;;;5058016;28;20065;-70
2022/04/30 01:27:26;;;;;;;17.50;11.63;;;5.80;99.70;;;;;;5069363;28;20032;-70
2022/04/30 01:29:54;;;;;;;20.67;12.10;;;5.70;99.70;;;;;;5085893;28;20024;-71
2022/04/30 01:38:12;;;;;;;15.40;10.52;;;5.60;99.90;;;;;;5086021;28;20028;-70
2022/04/30 01:40:37;;;;;;;20.63;12.13;;;5.60;99.90;;;;;;5069105;28;20211;-70
2022/04/30 01:43:05;;;;;;;15.98;11.52;;;5.50;99.90;;;;;;5083356;28;20039;-71
2022/04/30 01:45:33;;;;;;;16.98;10.75;;;5.40;99.90;;;;;;5085695;28;20028;-70
2022/04/30 01:48:01;;;;;;;20.98;11.30;;;5.40;99.90;;;;;;5086456;28;20070;-70
2022/04/30 01:50:26;;;;;;;17.95;11.13;;;5.50;99.90;;;;;;5068801;28;20057;-70
2022/04/30 01:52:52;;;;;;;16.73;10.85;;;5.50;99.90;;;;;;5068686;28;20020;-70
2022/04/30 01:55:19;;;;;;;19.30;11.25;;;5.50;99.70;;;;;;5051688;28;20317;-70
2022/04/30 01:57:45;;;;;;;17.27;11.20;;;5.50;99.60;;;;;;5085446;28;20031;-70
2022/04/30 02:00:13;;;;;;;20.58;12.00;;;5.50;99.60;;;;;;5085296;28;20028;-71
2022/04/30 02:02:43;;;;;;;16.13;11.52;;;5.50;99.60;;;;;;5085013;28;20095;-70
2022/04/30 02:05:12;;;;;;;19.50;11.13;;;5.50;99.70;;;;;;5069288;28;20157;-70
2022/04/30 02:07:42;;;;;;;17.60;10.93;;;5.50;99.50;;;;;;5086309;28;20028;-70
2022/04/30 02:10:10;;;;;;;18.00;11.77;;;5.50;99.40;;;;;;5068837;28;20036;-70
2022/04/30 02:12:36;;;;;;;20.40;12.13;;;5.40;99.40;;;;;;5068438;28;20017;-71
2022/04/30 02:15:01;;;;;;;17.80;11.50;;;5.40;99.50;;;;;;5067987;28;20047;-69
2022/04/30 02:17:30;;;;;;;22.25;12.52;;;5.30;99.40;;;;;;5085032;28;20024;-70
2022/04/30 02:22:46;;;;;;;18.40;11.02;;;5.20;99.50;;;;;;5085115;28;20016;-70
2022/04/30 02:25:13;;;;;;;19.08;10.90;;;5.20;99.50;;;;;;5083664;28;20078;-71
2022/04/30 02:27:42;;;;;;;19.27;12.27;;;5.20;99.60;;;;;;5084550;28;20369;-70
2022/04/30 02:30:11;;;;;;;19.88;11.68;;;5.20;99.60;;;;;;5084793;28;20023;-70
2022/04/30 02:32:49;;;;;;;17.65;11.68;;;5.30;99.60;;;;;;5084490;28;20300;-69
2022/04/30 02:35:24;;;;;;;21.20;12.65;;;5.30;99.60;;;;;;5084383;28;20028;-70
2022/04/30 02:37:52;;;;;;;17.05;11.63;;;5.20;99.40;;;;;;5085734;28;20092;-70
2022/04/30 02:40:19;;;;;;;19.63;12.15;;;5.20;99.50;;;;;;5084481;28;20024;-70
2022/04/30 02:42:46;;;;;;;19.30;12.00;;;5.10;99.60;;;;;;5067351;28;20016;-71
2022/04/30 02:45:13;;;;;;;22.13;12.57;;;5.10;99.60;;;;;;5083391;28;20024;-70
2022/04/30 02:47:41;;;;;;;23.77;13.00;;;5.10;99.50;;;;;;5084098;28;20039;-70
2022/04/30 02:50:08;;;;;;;21.63;12.10;;;5.10;99.40;;;;;;5050881;28;20079;-71
2022/04/30 02:52:35;;;;;;;18.77;12.38;;;5.00;99.40;;;;;;5084053;28;20286;-70
2022/04/30 02:55:02;;;;;;;19.80;11.80;;;5.00;99.30;;;;;;5083658;28;20021;-70
2022/04/30 03:00:39;;;;;;;20.17;11.75;;;5.00;99.80;;;;;;5073313;28;20016;-70
2022/04/30 03:03:06;;;;;;;24.77;11.73;;;4.90;99.80;;;;;;5051403;28;20020;-70
2022/04/30 03:05:32;;;;;;;19.13;11.93;;;4.80;99.90;;;;;;5067076;28;20033;-69
2022/04/30 03:07:59;;;;;;;19.80;12.65;;;4.80;99.90;;;;;;5067212;28;20028;-70
2022/04/30 03:10:25;;;;;;;19.00;12.18;;;4.70;99.90;;;;;;5083767;28;20091;-70
2022/04/30 03:12:50;;;;;;;18.17;11.25;;;4.70;99.90;;;;;;5067067;28;20028;-71
2022/04/30 03:15:21;;;;;;;18.92;12.07;;;4.70;99.90;;;;;;5084670;28;20030;-70
2022/04/30 03:23:19;;;;;;;17.70;11.30;;;4.70;99.90;;;;;;5083298;28;20058;-70
2022/04/30 03:25:45;;;;;;;17.63;11.85;;;4.60;99.90;;;;;;5084595;28;20024;-71
2022/04/30 03:28:11;;;;;;;20.15;12.40;;;4.60;99.90;;;;;;5084469;28;20039;-71
2022/04/30 03:30:37;;;;;;;20.88;11.93;;;4.50;99.90;;;;;;5066877;28;20319;-70
2022/04/30 03:33:02;;;;;;;22.25;12.38;;;4.50;99.90;;;;;;5084587;28;20020;-71
2022/04/30 03:35:28;;;;;;;20.10;11.48;;;4.60;99.90;;;;;;5084267;28;20028;-71
2022/04/30 03:37:54;;;;;;;21.58;11.32;;;4.60;99.90;;;;;;5083488;28;20048;-70
2022/04/30 03:40:22;;;;;;;24.85;11.85;;;4.60;99.90;;;;;;5083377;28;20099;-70
2022/04/30 03:42:48;;;;;;;24.40;12.02;;;4.60;99.90;;;;;;5066867;28;20269;-70
2022/04/30 03:45:14;;;;;;;23.55;11.90;;;4.50;99.90;;;;;;5064867;28;20016;-71
2022/04/30 03:47:40;;;;;;;21.80;12.70;;;4.40;99.90;;;;;;5084179;28;20388;-70
2022/04/30 03:50:07;;;;;;;24.05;12.05;;;4.50;99.90;;;;;;5083342;28;20052;-68
2022/04/30 03:52:33;;;;;;;19.35;12.40;;;4.50;99.90;;;;;;5066296;28;20027;-68
2022/04/30 03:54:59;;;;;;;24.50;12.48;;;4.50;99.90;;;;;;5066042;28;20304;-70
2022/04/30 03:57:25;;;;;;;20.30;12.57;;;4.50;99.90;;;;;;5083244;28;20242;-69
2022/04/30 03:59:51;;;;;;;20.15;11.70;;;4.50;99.90;;;;;;5082878;28;20070;-69
2022/04/30 04:02:18;;;;;;;18.00;11.45;;;4.50;99.90;;;;;;5082857;28;20024;-70
2022/04/30 04:04:45;;;;;;;23.42;12.23;;;4.50;99.90;;;;;;5084114;28;20025;-68
2022/04/30 04:07:11;;;;;;;19.77;11.43;;;4.40;99.90;;;;;;5083015;28;20032;-69
2022/04/30 04:09:36;;;;;;;23.60;12.50;;;4.40;99.90;;;;;;5082967;28;20043;-70
2022/04/30 04:12:03;;;;;;;22.15;12.43;;;4.40;99.90;;;;;;5065857;28;20035;-70
2022/04/30 04:19:59;;;;;;;26.40;13.35;;;4.30;99.90;;;;;;5055181;28;20044;-69
2022/04/30 04:22:25;;;;;;;20.75;12.82;;;4.30;99.90;;;;;;5082768;28;20028;-69
2022/04/30 04:27:36;;;;;;;19.50;12.32;;;4.30;99.90;;;;;;5069066;28;20369;-68
2022/04/30 04:30:02;;;;;;;22.83;13.10;;;4.20;99.90;;;;;;5083898;28;20024;-69
2022/04/30 04:32:28;;;;;;;20.50;12.65;;;4.30;99.90;;;;;;5082509;28;20024;-69
2022/04/30 04:34:54;;;;;;;23.70;13.23;;;4.20;99.90;;;;;;5065995;28;20093;-69
2022/04/30 04:37:20;;;;;;;24.20;12.65;;;4.20;99.90;;;;;;5082564;28;20204;-69
2022/04/30 04:39:45;;;;;;;25.42;13.05;;;4.10;99.90;;;;;;5082756;28;20035;-68
2022/04/30 04:42:11;;;;;;;24.42;12.77;;;4.20;99.90;;;;;;5083943;28;20016;-69
2022/04/30 04:44:37;;;;;;;23.20;13.32;;;4.20;99.90;;;;;;5082441;28;20084;-69
2022/04/30 04:47:03;;;;;;;24.80;13.57;;;4.20;99.90;;;;;;5063704;28;20016;-69
2022/04/30 04:49:28;;;;;;;22.55;13.18;;;4.10;99.90;;;;;;5085477;28;20032;-71
2022/04/30 04:51:55;;;;;;;21.42;13.85;;;4.20;99.90;;;;;;5086656;28;20027;-69
2022/04/30 04:54:20;;;;;;;22.77;12.80;;;4.20;99.90;;;;;;5086991;28;20234;-69
2022/04/30 04:56:46;;;;;;;22.48;12.45;;;4.20;99.90;;;;;;5086587;28;20017;-70
2022/04/30 04:59:13;;;;;;;24.48;13.27;;;4.20;99.90;;;;;;5069934;28;20028;-68
2022/04/30 05:01:40;;;;;;;25.52;12.65;;;4.20;99.90;;;;;;5086155;28;20368;-69
2022/04/30 05:04:08;;;;;;;21.60;13.70;;;4.20;99.90;;;;;;5069673;28;20020;-69
2022/04/30 05:06:35;;;;;;;24.15;12.98;;;4.20;99.90;;;;;;5053444;28;20024;-68
2022/04/30 05:09:01;;;;;;;21.17;13.25;;;4.20;99.90;;;;;;5086203;28;20311;-68
2022/04/30 05:11:26;;;;;;;27.98;13.25;;;4.20;99.90;;;;;;5086417;28;20031;-68
2022/04/30 05:13:52;;;;;;;22.15;12.98;;;4.20;99.90;;;;;;5052771;28;20024;-70
2022/04/30 05:16:18;;;;;;;24.70;13.52;;;4.20;99.90;;;;;;5087153;28;20119;-69
2022/04/30 05:18:43;;;;;;;22.42;13.43;;;4.20;99.90;;;;;;5087234;28;20211;-68
2022/04/30 05:21:09;;;;;;;22.52;13.10;;;4.30;99.90;;;;;;5069260;28;20024;-69
2022/04/30 05:23:36;;;;;;;22.98;13.55;;;4.30;99.90;;;;;;5069208;28;20016;-70
2022/04/30 05:26:01;;;;;;;26.40;13.43;;;4.30;99.90;;;;;;5087188;28;20027;-69
2022/04/30 05:28:27;;;;;;;22.15;14.13;;;4.40;99.90;;;;;;5069114;28;20025;-69
2022/04/30 05:30:53;;;;;;;24.60;13.38;;;4.40;99.90;;;;;;5085426;28;20029;-68
2022/04/30 05:33:18;;;;;;;26.15;13.63;;;4.40;99.90;;;;;;5069167;28;20188;-68
2022/04/30 05:35:45;;;;;;;26.10;13.02;;;4.50;99.90;;;;;;5086840;28;20020;-68
2022/04/30 05:38:10;;;;;;;25.88;13.48;;;4.50;99.90;;;;;;5085586;28;20020;-69
2022/04/30 05:40:36;;;;;;;19.70;12.20;;;4.60;99.80;;;;;;5086815;28;20039;-69
2022/04/30 05:43:04;;;;;;;20.95;12.48;;;4.60;99.80;;;;;;5085665;28;20057;-69
2022/04/30 05:45:30;;;;;;;20.13;13.23;;;4.60;99.70;;;;;;5086604;28;20016;-69
2022/04/30 05:47:55;;;;;;;24.80;13.93;;;4.60;99.70;;;;;;5083667;28;20096;-69
2022/04/30 05:50:21;;;;;;;28.42;14.48;;;4.70;99.70;;;;;;5086279;28;20048;-69
2022/04/30 05:52:47;;;;;;;22.27;13.25;;;4.80;99.70;;;;;;5068972;28;20020;-69
2022/04/30 05:55:13;;;;;;;25.33;13.45;;;4.90;99.50;;;;;;5085070;28;20036;-69
2022/04/30 05:57:39;;;;;;;20.05;13.18;;;5.10;99.40;;;;;;5085394;28;20021;-69
2022/04/30 06:00:05;;;;;;;26.77;13.70;;;5.10;99.10;;;;;;5085430;28;20348;-69
2022/04/30 06:02:31;;;;;;;20.85;13.02;;;5.30;98.90;;;;;;5084859;28;20020;-69
2022/04/30 06:04:56;;;;;;;22.73;14.75;;;5.40;98.70;;;;;;5068485;28;20023;-69
2022/04/30 06:07:23;;;;;;;27.52;14.13;;;5.50;98.60;;;;;;5068365;28;20051;-69
2022/04/30 06:09:48;;;;;;;27.05;14.15;;;5.50;98.30;;;;;;5086365;28;20063;-69
2022/04/30 06:12:14;;;;;;;25.08;14.00;;;5.60;98.10;;;;;;5085102;28;20353;-68
2022/04/30 06:14:39;;;;;;;21.05;13.38;;;5.70;98.20;;;;;;5067960;28;20028;-68
2022/04/30 06:17:05;;;;;;;20.08;13.30;;;5.80;98.10;;;;;;5086103;28;20315;-69
2022/04/30 06:19:31;;;;;;;25.55;14.27;;;5.90;97.90;;;;;;5084936;28;20035;-69
2022/04/30 06:21:56;;;;;;;22.17;14.35;;;6.10;97.70;;;;;;5085289;28;20028;-71
2022/04/30 06:24:22;;;;;;;21.55;12.90;;;6.20;97.50;;;;;;5084433;28;20092;-68
2022/04/30 06:26:48;;;;;;;20.73;13.57;;;6.40;97.30;;;;;;5085914;28;20031;-69
2022/04/30 06:29:13;;;;;;;25.65;13.93;;;6.50;97.20;;;;;;5084849;28;20024;-70
2022/04/30 06:31:39;;;;;;;20.33;13.13;;;6.70;96.80;;;;;;5084933;28;20299;-70
2022/04/30 06:34:05;;;;;;;20.42;13.98;;;6.70;96.50;;;;;;5084418;28;20016;-70
2022/04/30 06:36:31;;;;;;;21.80;13.98;;;6.80;96.50;;;;;;5084788;28;20188;-70
2022/04/30 06:38:56;;;;;;;23.95;13.90;;;6.80;96.40;;;;;;5085773;28;20084;-70
2022/04/30 06:41:23;;;;;;;25.98;13.50;;;6.90;96.40;;;;;;5085478;28;20079;-70
2022/04/30 06:43:51;;;;;;;29.35;14.30;;;6.90;96.20;;;;;;5085560;28;20032;-70
2022/04/30 06:46:17;;;;;;;25.27;13.82;;;7.00;96.10;;;;;;5085250;28;20047;-70
2022/04/30 06:48:44;;;;;;;27.17;14.10;;;7.10;96.10;;;;;;5083542;28;20103;-70
2022/04/30 06:51:11;;;;;;;19.55;12.50;;;7.10;96.00;;;;;;5085120;28;20331;-69
2022/04/30 06:59:11;;;;;;;33.55;13.77;;;7.20;95.50;;;;;;5056433;28;20043;-69
2022/04/30 07:04:24;;;;;;;46.42;14.02;;;7.30;95.70;;;;;;5070285;28;20561;-70
2022/04/30 07:06:51;;;;;;;61.13;19.17;;;7.40;95.50;;;;;;5084097;28;20027;-70
2022/04/30 07:09:18;;;;;;;55.63;18.45;;;7.50;95.30;;;;;;5083833;28;20032;-70
2022/04/30 07:11:44;;;;;;;51.60;17.25;;;7.60;95.20;;;;;;5050141;28;20024;-69
2022/04/30 07:14:10;;;;;;;45.13;16.90;;;7.80;94.60;;;;;;5084959;28;20074;-70
2022/04/30 07:16:38;;;;;;;46.50;16.23;;;7.90;94.30;;;;;;5084795;28;20028;-70
2022/04/30 07:19:04;;;;;;;56.22;16.23;;;7.90;94.20;;;;;;5083756;28;20024;-72
2022/04/30 07:21:31;;;;;;;30.75;15.93;;;8.00;93.90;;;;;;5067276;28;20016;-69
2022/04/30 07:23:59;;;;;;;36.03;14.35;;;8.00;93.80;;;;;;5083498;28;20062;-72
2022/04/30 07:26:25;;;;;;;37.40;14.57;;;8.20;93.90;;;;;;5067112;28;20025;-72
2022/04/30 07:28:51;;;;;;;34.75;14.35;;;8.30;93.60;;;;;;5066648;28;20283;-70
2022/04/30 07:31:17;;;;;;;36.08;15.27;;;8.40;93.50;;;;;;5083495;28;20024;-70
2022/04/30 07:33:43;;;;;;;45.92;15.90;;;8.50;93.20;;;;;;5084426;28;20027;-70
2022/04/30 07:36:09;;;;;;;44.28;13.95;;;8.70;93.10;;;;;;5084687;28;20084;-69
2022/04/30 07:38:35;;;;;;;30.52;13.68;;;8.80;92.60;;;;;;5084667;28;20414;-70
2022/04/30 07:41:00;;;;;;;42.22;13.02;;;8.80;92.40;;;;;;5083434;28;20095;-69
2022/04/30 07:43:26;;;;;;;71.68;16.23;;;8.80;92.40;;;;;;5066698;28;20031;-71
2022/04/30 07:45:52;;;;;;;78.47;14.00;;;8.80;92.60;;;;;;5084349;28;20024;-69
2022/04/30 07:48:17;;;;;;;26.08;10.70;;;8.90;92.60;;;;;;5082660;28;20044;-69
2022/04/30 07:50:45;;;;;;;21.02;12.23;;;9.10;92.20;;;;;;5050092;28;20057;-71
2022/04/30 07:53:15;;;;;;;20.13;12.50;;;9.10;91.80;;;;;;5066759;28;20045;-70
2022/04/30 07:55:42;;;;;;;22.65;10.82;;;9.10;91.70;;;;;;5066556;28;20331;-70
2022/04/30 07:58:08;;;;;;;16.02;10.13;;;9.20;91.70;;;;;;5084475;28;20043;-69
2022/04/30 08:00:34;;;;;;;16.10;9.75;;;9.20;91.70;;;;;;5084073;28;20020;-70
2022/04/30 08:02:59;;;;;;;19.42;10.25;;;9.40;91.30;;;;;;5066488;28;20082;-70
2022/04/30 08:05:27;;;;;;;15.70;9.18;;;9.40;91.20;;;;;;5084360;28;20035;-68
2022/04/30 08:07:54;;;;;;;14.43;8.80;;;9.50;91.30;;;;;;5066353;28;20028;-69
2022/04/30 08:10:20;;;;;;;14.60;9.52;;;9.50;91.10;;;;;;5082988;28;20091;-70
2022/04/30 08:12:46;;;;;;;16.58;8.40;;;9.50;91.20;;;;;;5066170;28;20056;-71
2022/04/30 08:15:12;;;;;;;14.15;9.02;;;9.50;90.90;;;;;;5082895;28;20322;-70
2022/04/30 08:17:39;;;;;;;17.83;9.05;;;9.60;90.90;;;;;;5066293;28;20020;-70
2022/04/30 08:20:07;;;;;;;19.33;9.05;;;9.70;90.80;;;;;;5083005;28;20238;-71
2022/04/30 08:22:33;;;;;;;16.98;9.75;;;9.90;90.80;;;;;;5083178;28;20032;-72
2022/04/30 08:25:01;;;;;;;17.10;8.63;;;10.00;90.60;;;;;;5081639;28;20016;-71
2022/04/30 08:27:26;;;;;;;12.00;7.97;;;10.10;90.50;;;;;;5082807;28;20020;-70
2022/04/30 08:29:52;;;;;;;24.50;8.70;;;10.30;90.20;;;;;;5082820;28;20033;-69
2022/04/30 08:32:19;;;;;;;14.70;9.10;;;10.50;89.60;;;;;;5066087;28;20020;-70
2022/04/30 08:34:45;;;;;;;12.02;8.13;;;10.40;89.30;;;;;;5082446;28;20025;-71
2022/04/30 08:37:11;;;;;;;12.65;8.27;;;10.40;88.70;;;;;;5066229;28;20091;-69
2022/04/30 08:39:37;;;;;;;13.77;8.20;;;10.40;89.30;;;;;;5082637;28;20021;-69
2022/04/30 08:42:06;;;;;;;15.77;7.68;;;10.50;88.50;;;;;;5082465;28;20302;-69
2022/04/30 08:44:35;;;;;;;18.65;7.82;;;10.60;88.10;;;;;;5083859;28;20081;-71
2022/04/30 08:47:01;;;;;;;12.63;8.02;;;10.60;88.50;;;;;;5066258;28;20021;-71
2022/04/30 08:49:27;;;;;;;11.20;8.10;;;10.70;88.30;;;;;;5080238;28;20142;-69
2022/04/30 08:51:52;;;;;;;14.93;8.10;;;10.70;88.00;;;;;;5065979;28;20017;-72
2022/04/30 08:54:18;;;;;;;11.15;7.90;;;10.80;87.70;;;;;;5082338;28;20074;-70
2022/04/30 08:56:59;;;;;;;12.25;7.65;;;10.90;87.30;;;;;;5065938;28;20044;-70
2022/04/30 08:59:27;;;;;;;12.45;7.88;;;11.00;86.80;;;;;;5083522;28;20239;-72
2022/04/30 09:01:55;;;;;;;11.80;7.45;;;11.00;86.40;;;;;;5066101;28;20047;-70
2022/04/30 09:04:21;;;;;;;18.40;7.85;;;11.00;86.40;;;;;;5065819;28;20322;-69
2022/04/30 09:06:49;;;;;;;14.18;7.60;;;11.10;86.40;;;;;;5065933;28;20016;-69
2022/04/30 09:09:24;;;;;;;11.57;7.55;;;11.20;86.00;;;;;;5082530;28;20028;-70
2022/04/30 09:11:53;;;;;;;12.48;7.40;;;11.30;85.70;;;;;;5082224;28;20024;-69
2022/04/30 09:14:26;;;;;;;10.45;7.35;;;11.30;85.60;;;;;;5082225;28;20031;-70
2022/04/30 09:17:10;;;;;;;11.60;7.57;;;11.30;85.80;;;;;;5082313;28;20031;-72
2022/04/30 09:20:04;;;;;;;12.45;7.93;;;11.40;85.50;;;;;;5082494;28;20021;-73
2022/04/30 09:22:33;;;;;;;10.73;7.63;;;11.50;85.10;;;;;;5082433;28;20021;-71
2022/04/30 09:25:01;;;;;;;11.15;7.55;;;11.70;84.60;;;;;;5081960;28;20054;-70
2022/04/30 09:27:27;;;;;;;13.45;8.23;;;11.70;84.40;;;;;;5082294;28;20017;-69
2022/04/30 09:29:53;;;;;;;12.00;7.53;;;11.70;84.30;;;;;;5081911;28;20024;-70
2022/04/30 09:32:22;;;;;;;10.90;7.38;;;11.80;84.20;;;;;;5081727;28;20024;-70
2022/04/30 09:37:42;;;;;;;9.85;7.30;;;12.00;83.30;;;;;;5086108;28;20027;-71
2022/04/30 09:40:19;;;;;;;10.82;6.93;;;12.20;83.30;;;;;;5085670;28;20024;-72
2022/04/30 09:42:46;;;;;;;12.48;6.60;;;12.30;82.90;;;;;;5086633;28;20020;-70
2022/04/30 09:45:33;;;;;;;12.75;7.00;;;12.30;82.80;;;;;;5085664;28;20090;-73
2022/04/30 09:48:00;;;;;;;13.10;7.28;;;12.30;82.80;;;;;;5068735;28;20215;-71
2022/04/30 09:56:07;;;;;;;9.52;7.25;;;12.60;82.20;;;;;;5071672;28;20026;-71
2022/04/30 09:58:38;;;;;;;10.70;6.90;;;12.80;82.00;;;;;;5068680;28;20308;-70
2022/04/30 10:01:05;;;;;;;7.72;5.93;;;12.80;81.80;;;;;;5085189;28;20024;-70
2022/04/30 10:03:33;;;;;;;9.82;6.40;;;12.90;81.10;;;;;;5086355;28;20020;-70
2022/04/30 10:06:05;;;;;;;10.98;6.35;;;12.90;81.30;;;;;;5068584;28;20111;-69
2022/04/30 10:08:39;;;;;;;;;;;12.90;81.40;;;;;;5085536;28;20028;-69
2022/04/30 10:11:34;;;;;;;9.90;6.50;;;13.00;81.20;;;;;;5086240;28;19900;-72
2022/04/30 10:14:40;;;;;;;8.52;6.20;;;13.10;80.60;;;;;;5070923;28;20020;-70
2022/04/30 10:17:13;;;;;;;8.13;5.93;;;13.10;80.60;;;;;;5085301;28;20024;-70
2022/04/30 10:19:41;;;;;;;9.90;6.40;;;13.20;80.40;;;;;;5085016;28;20025;-71
2022/04/30 10:22:13;;;;;;;10.10;6.40;;;13.50;80.70;;;;;;5084862;28;20048;-71
2022/04/30 10:24:47;;;;;;;10.88;6.40;;;13.50;80.50;;;;;;5068450;28;20028;-72
2022/04/30 10:27:14;;;;;;;10.38;6.18;;;13.60;80.20;;;;;;5085073;28;20044;-72
2022/04/30 10:29:57;;;;;;;8.65;6.43;;;13.70;80.10;;;;;;5068174;28;20227;-71
2022/04/30 10:32:27;;;;;;;7.20;5.57;;;13.80;79.20;;;;;;5084769;28;20104;-72
2022/04/30 10:34:53;;;;;;;11.07;6.45;;;14.00;78.80;;;;;;5067950;28;20207;-71
2022/04/30 10:37:38;;;;;;;9.55;6.38;;;14.20;79.50;;;;;;5085693;28;20017;-71
2022/04/30 10:40:08;;;;;;;10.48;6.47;;;14.20;78.80;;;;;;5084997;28;20048;-72
2022/04/30 10:42:43;;;;;;;7.63;5.68;;;14.30;78.80;;;;;;5067817;28;20096;-71
2022/04/30 10:45:15;;;;;;;8.50;5.32;;;14.30;77.90;;;;;;5084212;28;20235;-71
2022/04/30 10:47:58;;;;;;;10.23;5.97;;;14.30;78.00;;;;;;5067490;28;20024;-71
2022/04/30 10:50:24;;;;;;;6.97;5.68;;;14.20;78.40;;;;;;5082647;28;20056;-71
2022/04/30 10:52:51;;;;;;;8.80;6.28;;;14.40;78.40;;;;;;5083949;28;20319;-70
2022/04/30 10:55:18;;;;;;;9.73;5.97;;;14.50;78.10;;;;;;5083861;28;20016;-72
2022/04/30 10:57:45;;;;;;;6.68;5.65;;;14.60;77.50;;;;;;5067796;28;20016;-69
2022/04/30 11:00:12;;;;;;;8.35;6.13;;;14.60;77.90;;;;;;5084122;28;20264;-71
2022/04/30 11:02:38;;;;;;;10.05;6.35;;;14.50;77.10;;;;;;5084086;28;20059;-70
2022/04/30 11:05:05;;;;;;;10.75;6.20;;;14.50;77.00;;;;;;5067558;28;20021;-71
2022/04/30 11:07:31;;;;;;;7.65;5.65;;;14.40;77.40;;;;;;5085279;28;20035;-71
2022/04/30 11:09:57;;;;;;;10.02;5.82;;;14.50;77.60;;;;;;5067647;28;20017;-69
2022/04/30 11:12:30;;;;;;;8.90;6.13;;;14.80;76.60;;;;;;5083555;28;20022;-71
2022/04/30 11:14:57;;;;;;;7.13;5.10;;;14.90;76.20;;;;;;5067211;28;20017;-70
2022/04/30 11:17:24;;;;;;;9.18;5.18;;;15.10;75.30;;;;;;5083843;28;20307;-71
2022/04/30 11:19:51;;;;;;;5.97;4.70;;;15.20;74.90;;;;;;5083513;28;20028;-71
2022/04/30 11:22:17;;;;;;;7.82;4.72;;;15.30;74.90;;;;;;5084626;28;20212;-71
2022/04/30 11:24:43;;;;;;;9.23;4.95;;;15.40;74.90;;;;;;5083348;28;20024;-71
2022/04/30 11:27:10;;;;;;;8.07;5.30;;;15.50;73.60;;;;;;5084695;28;20021;-71
2022/04/30 11:29:47;;;;;;;7.97;5.60;;;15.40;74.10;;;;;;5083675;28;20330;-72
2022/04/30 11:32:21;;;;;;;9.93;5.65;;;15.30;74.50;;;;;;5068064;28;20051;-72
2022/04/30 11:34:46;;;;;;;10.65;5.65;;;15.30;74.80;;;;;;5083767;28;20017;-73
2022/04/30 11:37:12;;;;;;;8.77;4.65;;;15.50;74.30;;;;;;5084722;28;20021;-70
2022/04/30 11:39:38;;;;;;;6.57;5.03;;;15.80;73.50;;;;;;5066818;28;20099;-70
2022/04/30 11:42:04;;;;;;;8.02;5.00;;;15.80;73.00;;;;;;5066204;28;20035;-72
2022/04/30 11:44:29;;;;;;;8.93;5.38;;;16.00;72.90;;;;;;5083159;28;20024;-71
2022/04/30 11:46:56;;;;;;;7.75;4.80;;;16.20;72.50;;;;;;5084248;28;20028;-70
2022/04/30 11:49:24;;;;;;;6.07;4.53;;;16.20;70.60;;;;;;5083421;28;20045;-72
2022/04/30 11:51:52;;;;;;;5.18;3.97;;;16.00;70.80;;;;;;5065086;28;20043;-72
2022/04/30 11:54:20;;;;;;;8.70;4.60;;;16.10;70.90;;;;;;5082841;28;20016;-72
2022/04/30 11:56:46;;;;;;;6.47;4.50;;;16.00;70.90;;;;;;5083370;28;20075;-71
2022/04/30 11:59:12;;;;;;;6.30;4.35;;;16.10;71.50;;;;;;5066125;28;20029;-70
2022/04/30 12:01:40;;;;;;;7.40;4.20;;;16.30;71.20;;;;;;5083257;28;20028;-71
2022/04/30 12:04:14;;;;;;;4.65;4.10;;;16.60;70.70;;;;;;5066388;28;20070;-73
2022/04/30 12:06:43;;;;;;;6.10;4.28;;;16.50;70.50;;;;;;5084337;28;20352;-72
2022/04/30 12:09:21;;;;;;;8.27;4.80;;;16.60;70.20;;;;;;5084086;28;20031;-72
2022/04/30 12:11:51;;;;;;;8.20;5.15;;;16.70;70.00;;;;;;5066195;28;20224;-71
2022/04/30 12:14:18;;;;;;;6.43;4.80;;;16.90;70.10;;;;;;5082651;28;20027;-70
2022/04/30 12:16:46;;;;;;;6.60;4.88;;;17.00;69.30;;;;;;5083093;28;20047;-71
2022/04/30 12:25:10;;;;;;;5.80;3.53;;;17.50;66.30;;;;;;5068759;28;20191;-72
2022/04/30 12:27:37;;;;;;;6.53;3.60;;;17.50;65.70;;;;;;5065998;28;20028;-72
2022/04/30 12:30:06;;;;;;;4.90;3.65;;;17.90;65.80;;;;;;5082688;28;20024;-71
2022/04/30 12:32:33;;;;;;;6.85;3.72;;;17.80;65.70;;;;;;5082425;28;20231;-71
2022/04/30 12:35:01;;;;;;;5.60;3.30;;;18.00;65.50;;;;;;5083862;28;20101;-71
2022/04/30 12:37:33;;;;;;;7.60;3.20;;;18.00;65.10;;;;;;5082793;28;20016;-71
2022/04/30 12:40:01;;;;;;;6.47;3.83;;;18.10;64.60;;;;;;5083450;28;20016;-72
2022/04/30 12:42:27;;;;;;;3.75;2.95;;;17.80;64.20;;;;;;5083579;28;20089;-71
2022/04/30 12:44:53;;;;;;;4.28;2.88;;;17.80;63.00;;;;;;5082257;28;20254;-73
2022/04/30 12:47:19;;;;;;;8.10;3.78;;;17.70;64.70;;;;;;5082399;28;20024;-73
2022/04/30 12:49:44;;;;;;;5.45;4.03;;;18.10;65.60;;;;;;5083353;28;20064;-74
2022/04/30 12:52:10;;;;;;;6.32;3.70;;;18.20;64.70;;;;;;5080519;28;20027;-72
2022/04/30 12:54:36;;;;;;;6.82;3.33;;;18.20;64.70;;;;;;5064994;28;20053;-72
2022/04/30 12:57:07;;;;;;;4.28;3.20;;;18.20;65.00;;;;;;5065462;28;20021;-71
2022/04/30 12:59:34;;;;;;;5.65;3.40;;;18.30;64.00;;;;;;5082141;28;20307;-71
2022/04/30 13:01:59;;;;;;;3.30;2.88;;;18.30;63.90;;;;;;5083478;28;20035;-72
2022/04/30 13:04:25;;;;;;;4.35;2.92;;;18.00;64.30;;;;;;5065505;28;20021;-71
2022/04/30 13:06:51;;;;;;;6.40;3.25;;;17.90;63.90;;;;;;5081978;28;20044;-70
2022/04/30 13:14:49;;;;;;;3.78;2.58;;;18.50;62.10;;;;;;5072298;28;20017;-72
2022/04/30 13:17:15;;;;;;;4.35;3.58;;;18.60;62.90;;;;;;5087108;28;20268;-71
2022/04/30 13:19:40;;;;;;;7.43;4.75;;;18.70;64.00;;;;;;5085767;28;20028;-69
2022/04/30 13:22:06;;;;;;;6.40;4.30;;;18.60;64.00;;;;;;5069115;28;20323;-70
2022/04/30 13:24:33;;;;;;;5.32;4.30;;;18.40;64.40;;;;;;5085438;28;20024;-71
2022/04/30 13:26:59;;;;;;;5.32;4.05;;;18.20;64.60;;;;;;5069374;28;20028;-70
2022/04/30 13:29:25;;;;;;;5.00;4.50;;;18.30;65.10;;;;;;5087015;28;20024;-71
2022/04/30 13:31:51;;;;;;;4.75;4.10;;;18.40;64.40;;;;;;5086156;28;20027;-71
2022/04/30 13:34:16;;;;;;;4.68;3.80;;;18.10;64.40;;;;;;5085589;28;20082;-70
2022/04/30 13:36:42;;;;;;;5.20;3.58;;;18.10;64.70;;;;;;5085907;28;20043;-72